Time;durP1;ratioP1;P1;durP2;ratioP2;P2;SDS_P1;SDS_P2;PMS_P1;PMS_P2;Temp;Humidity;BMP_temperature;BMP_pressure;BME280_temperature;BME280_humidity;BME280_pressure;Samples;Min_cycle;Max_cycle;Signal;HPM_P1;HPM_P2
2022/01/14 00:01:58;;;;;;;44.15;23.77;;;;;;;-2.83;55.34;96298.84;4929279;29;20373;-79
2022/01/14 00:04:24;;;;;;;49.08;23.35;;;;;;;-2.82;55.25;96290.28;4931976;29;20040;-80
2022/01/14 00:06:50;;;;;;;44.85;22.17;;;;;;;-2.83;55.60;96283.59;4929304;29;20036;-79
2022/01/14 00:09:16;;;;;;;41.78;21.98;;;;;;;-2.84;56.01;96282.78;4923447;29;20040;-80
2022/01/14 00:11:55;;;;;;;51.38;24.23;;;;;;;-2.82;55.76;96280.13;4929304;29;20575;-80
2022/01/14 00:14:37;;;;;;;56.08;24.75;;;;;;;-2.80;55.57;96284.16;4909770;29;20499;-80
2022/01/14 00:17:10;;;;;;;54.30;28.33;;;;;;;-2.81;55.38;96294.47;4907145;29;20517;-81
2022/01/14 00:19:35;;;;;;;59.88;30.65;;;;;;;-2.73;55.85;96298.06;4926865;29;20275;-80
2022/01/14 00:22:07;;;;;;;56.28;27.38;;;;;;;-2.69;54.90;96291.00;4932659;29;20046;-80
2022/01/14 00:31:41;;;;;;;48.88;24.90;;;;;;;-2.71;55.41;96292.88;4907658;29;20044;-81
2022/01/14 00:35:30;;;;;;;38.42;20.05;;;;;;;-2.68;55.25;96305.38;4910169;29;20095;-80
2022/01/14 00:37:56;;;;;;;38.85;21.88;;;;;;;-2.69;55.06;96306.28;4927154;29;20040;-80
2022/01/14 00:40:21;;;;;;;42.25;21.05;;;;;;;-2.74;55.00;96318.56;4895795;29;20036;-79
2022/01/14 00:45:22;;;;;;;40.53;21.77;;;;;;;-2.71;55.40;96305.59;4984613;23;20461;-80
2022/01/14 00:47:48;;;;;;;45.38;22.88;;;;;;;-2.71;54.43;96303.06;4935996;29;20046;-80
2022/01/14 00:50:14;;;;;;;42.00;22.23;;;;;;;-2.74;54.85;96314.28;4919609;29;20094;-80
2022/01/14 00:52:41;;;;;;;43.83;20.17;;;;;;;-2.80;54.79;96316.44;4918564;29;20035;-80
2022/01/14 00:55:07;;;;;;;38.08;19.83;;;;;;;-2.85;55.29;96315.97;4902648;29;20526;-80
2022/01/14 01:00:20;;;;;;;44.67;20.35;;;;;;;-3.02;55.46;96320.56;4921054;29;20112;-81
2022/01/14 01:02:58;;;;;;;38.30;19.30;;;;;;;-3.08;55.99;96317.66;4934915;29;20036;-79
2022/01/14 01:05:23;;;;;;;51.13;22.73;;;;;;;-3.08;55.96;96318.47;4935848;29;20028;-80
2022/01/14 01:08:05;;;;;;;48.15;24.27;;;;;;;-2.99;55.51;96313.63;4936222;29;20039;-81
2022/01/14 01:10:31;;;;;;;43.05;23.05;;;;;;;-2.92;55.05;96310.53;4921197;29;20506;-80
2022/01/14 01:13:15;;;;;;;51.13;24.80;;;;;;;-2.90;55.57;96307.88;4920005;29;20036;-80
2022/01/14 01:15:41;;;;;;;41.38;21.70;;;;;;;-2.86;54.88;96301.63;4922108;29;20043;-79
2022/01/14 01:18:06;;;;;;;46.72;24.00;;;;;;;-2.79;55.08;96295.16;4919461;29;20074;-80
2022/01/14 01:20:32;;;;;;;49.53;24.80;;;;;;;-2.69;54.63;96295.28;4903066;29;20038;-80
2022/01/14 01:22:57;;;;;;;45.80;23.75;;;;;;;-2.63;55.01;96293.09;4935236;29;20695;-80
2022/01/14 01:25:26;;;;;;;51.92;25.25;;;;;;;-2.61;54.38;96278.50;4887020;29;20032;-79
2022/01/14 01:27:53;;;;;;;54.15;22.70;;;;;;;-2.54;53.94;96289.88;4936234;29;20419;-80
2022/01/14 01:32:57;;;;;;;40.15;20.85;;;;;;;-2.58;53.89;96273.22;4920946;29;20043;-80
2022/01/14 01:35:27;;;;;;;41.60;19.65;;;;;;;-2.68;54.04;96272.28;4920829;29;20070;-80
2022/01/14 01:37:52;;;;;;;45.30;19.15;;;;;;;-2.82;54.41;96275.03;4921463;29;20050;-80
2022/01/14 01:40:19;;;;;;;40.63;19.58;;;;;;;-2.89;54.97;96273.88;4923005;29;20032;-80
2022/01/14 01:45:20;;;;;;;49.53;21.40;;;;;;;-2.97;55.50;96265.97;4934391;23;20056;-80
2022/01/14 01:47:49;;;;;;;59.15;22.83;;;;;;;-2.94;54.99;96260.66;4932468;29;20111;-80
2022/01/14 01:50:16;;;;;;;55.58;23.70;;;;;;;-3.02;55.18;96259.50;4918496;29;20039;-80
2022/01/14 01:52:42;;;;;;;58.60;26.25;;;;;;;-3.05;55.18;96264.81;4931274;29;20063;-79
2022/01/14 01:55:07;;;;;;;64.35;26.38;;;;;;;-3.02;55.05;96269.66;4914843;29;20058;-80
2022/01/14 01:57:33;;;;;;;43.17;20.00;;;;;;;-2.99;54.94;96267.81;4947577;29;20035;-80
2022/01/14 01:59:58;;;;;;;33.60;17.15;;;;;;;-3.05;54.90;96259.72;4948196;29;20051;-80
2022/01/14 02:02:24;;;;;;;45.90;18.20;;;;;;;-3.09;55.17;96248.16;4949209;29;20047;-80
2022/01/14 02:04:49;;;;;;;39.85;18.85;;;;;;;-3.18;55.53;96242.91;4914438;29;20031;-80
2022/01/14 02:07:16;;;;;;;42.72;18.73;;;;;;;-3.24;55.44;96239.09;4931047;29;20407;-80
2022/01/14 02:09:42;;;;;;;48.38;21.80;;;;;;;-3.23;56.28;96237.38;4930607;29;20107;-81
2022/01/14 02:12:10;;;;;;;61.25;24.42;;;;;;;-3.25;55.59;96234.94;4914516;29;20454;-80
2022/01/14 02:19:32;;;;;;;40.13;19.23;;;;;;;-3.32;55.97;96213.41;4920457;29;20036;-80
2022/01/14 02:22:12;;;;;;;37.90;18.33;;;;;;;-3.32;55.76;96205.78;4939370;29;20028;-80
2022/01/14 02:27:13;;;;;;;38.40;18.23;;;;;;;-3.24;55.62;96208.59;4905089;29;20054;-80
2022/01/14 02:29:51;;;;;;;46.55;17.95;;;;;;;-3.24;55.54;96202.69;4933376;23;20088;-81
2022/01/14 02:32:16;;;;;;;40.08;19.35;;;;;;;-3.32;55.96;96203.22;4936418;29;20040;-81
2022/01/14 02:34:42;;;;;;;41.72;20.42;;;;;;;-3.34;55.81;96202.53;4937095;29;20042;-81
2022/01/14 02:37:07;;;;;;;44.33;21.08;;;;;;;-3.35;55.64;96206.81;4905499;29;20046;-81
2022/01/14 02:39:33;;;;;;;35.83;18.45;;;;;;;-3.31;55.68;96197.22;4943047;23;20099;-81
2022/01/14 02:41:58;;;;;;;41.67;17.83;;;;;;;-3.34;56.30;96192.38;4938267;29;20035;-80
2022/01/14 02:44:26;;;;;;;40.65;18.75;;;;;;;-3.34;55.91;96200.81;4936731;29;20032;-80
2022/01/14 02:46:55;;;;;;;37.47;19.25;;;;;;;-3.36;56.09;96187.38;4971289;28;20047;-81
2022/01/14 02:49:22;;;;;;;49.50;21.80;;;;;;;-3.33;55.88;96188.91;4967734;23;20043;-80
2022/01/14 02:51:47;;;;;;;42.80;20.77;;;;;;;-3.29;55.67;96190.28;4948709;29;20087;-80
2022/01/14 02:54:16;;;;;;;42.80;20.58;;;;;;;-3.30;56.12;96196.28;4920246;29;20038;-80
2022/01/14 02:56:43;;;;;;;47.30;20.35;;;;;;;-3.36;56.44;96199.31;4932600;29;20045;-80
2022/01/14 02:59:09;;;;;;;39.08;17.73;;;;;;;-3.36;55.96;96189.94;4932812;23;20044;-81
2022/01/14 03:01:34;;;;;;;48.13;22.58;;;;;;;-3.40;55.41;96188.53;4932045;29;20048;-80
2022/01/14 03:04:01;;;;;;;51.90;21.83;;;;;;;-3.43;56.26;96172.69;4925095;29;20024;-81
2022/01/14 03:06:27;;;;;;;40.45;20.98;;;;;;;-3.44;55.57;96178.69;4919522;29;20044;-81
2022/01/14 03:08:52;;;;;;;39.60;19.08;;;;;;;-3.48;56.27;96174.75;4949075;29;20059;-81
2022/01/14 03:11:23;;;;;;;44.53;18.75;;;;;;;-3.49;55.90;96175.69;4942447;24;20044;-78
2022/01/14 03:13:48;;;;;;;38.50;19.98;;;;;;;-3.57;56.31;96165.28;4961247;29;20124;-79
2022/01/14 03:16:14;;;;;;;40.50;19.85;;;;;;;-3.74;57.54;96159.69;4926799;29;20028;-80
2022/01/14 03:18:46;;;;;;;39.67;19.77;;;;;;;-3.73;57.57;96157.97;4898376;29;20486;-79
2022/01/14 03:21:14;;;;;;;41.92;21.25;;;;;;;-3.71;57.24;96159.47;4914828;29;20093;-80
2022/01/14 03:23:49;;;;;;;46.92;23.50;;;;;;;-3.70;57.10;96142.47;4912797;29;20035;-79
2022/01/14 03:26:16;;;;;;;48.78;25.63;;;;;;;-3.66;56.94;96142.13;4911889;29;20047;-81
2022/01/14 03:28:41;;;;;;;49.08;23.00;;;;;;;-3.67;56.42;96139.69;4989033;23;20047;-80
2022/01/14 03:31:07;;;;;;;43.65;18.88;;;;;;;-3.68;57.44;96133.81;4937256;29;20464;-81
2022/01/14 03:33:33;;;;;;;40.40;17.85;;;;;;;-3.74;57.25;96134.28;4918182;29;20032;-80
2022/01/14 03:35:59;;;;;;;38.10;18.10;;;;;;;-3.69;57.20;96131.38;4894140;29;20066;-81
2022/01/14 03:41:03;;;;;;;46.15;18.05;;;;;;;-3.71;56.45;96134.03;5004234;23;20056;-80
2022/01/14 03:43:28;;;;;;;44.40;19.20;;;;;;;-3.76;56.58;96120.84;4940860;29;20031;-81
2022/01/14 03:45:54;;;;;;;47.95;18.45;;;;;;;-3.82;56.94;96121.28;4928706;29;20584;-80
2022/01/14 03:48:19;;;;;;;47.80;18.38;;;;;;;-3.77;56.48;96121.75;4960505;23;20059;-81
2022/01/14 03:50:44;;;;;;;35.38;18.75;;;;;;;-3.84;57.64;96110.44;4944769;29;20031;-81
2022/01/14 03:53:13;;;;;;;49.88;20.33;;;;;;;-3.78;56.97;96109.16;4985327;23;20583;-81
2022/01/14 03:55:39;;;;;;;38.78;18.42;;;;;;;-3.69;56.52;96126.31;4935387;29;20400;-80
2022/01/14 03:58:05;;;;;;;47.22;17.10;;;;;;;-3.71;57.00;96121.34;4918770;29;20034;-81
2022/01/14 04:00:31;;;;;;;42.83;19.63;;;;;;;-3.70;56.05;96110.25;4936652;29;20040;-81
2022/01/14 04:02:56;;;;;;;36.42;17.40;;;;;;;-3.74;56.74;96113.94;4937103;29;20028;-79
2022/01/14 04:05:22;;;;;;;45.25;19.52;;;;;;;-3.71;57.38;96118.78;4918694;29;20502;-80
2022/01/14 04:07:47;;;;;;;48.20;22.40;;;;;;;-3.70;56.15;96130.56;4919463;29;20055;-80
2022/01/14 04:10:13;;;;;;;35.13;19.42;;;;;;;-3.71;56.48;96121.34;4918876;29;20621;-80
2022/01/14 04:12:50;;;;;;;38.72;18.25;;;;;;;-3.63;56.24;96111.41;4917621;29;20484;-80
2022/01/14 04:17:45;;;;;;;37.30;20.48;;;;;;;-3.43;55.23;96104.03;5026118;23;20062;-81
2022/01/14 04:20:11;;;;;;;55.33;21.50;;;;;;;-3.32;54.87;96098.97;4944263;29;20047;-81
2022/01/14 04:22:36;;;;;;;39.30;18.83;;;;;;;-3.27;54.23;96096.06;4943611;29;20086;-80
2022/01/14 04:25:02;;;;;;;45.95;18.65;;;;;;;-3.23;54.15;96093.19;4926672;29;20039;-81
2022/01/14 04:27:27;;;;;;;35.63;17.00;;;;;;;-3.21;54.53;96096.44;4945074;29;20512;-80
2022/01/14 04:29:52;;;;;;;28.25;16.25;;;;;;;-3.20;54.63;96092.94;4949375;29;20035;-81
2022/01/14 04:32:18;;;;;;;42.25;18.83;;;;;;;-3.21;54.67;96091.34;4963589;29;20102;-81
2022/01/14 04:34:54;;;;;;;36.83;17.02;;;;;;;-3.18;54.05;96101.28;4917484;29;20035;-81
2022/01/14 04:37:22;;;;;;;44.80;17.45;;;;;;;-3.15;54.68;96090.84;4878261;29;20053;-78
2022/01/14 04:39:48;;;;;;;35.15;17.38;;;;;;;-3.10;53.98;96091.31;4921462;23;20130;-76
2022/01/14 04:42:13;;;;;;;47.60;18.77;;;;;;;-3.03;54.05;96095.03;4932612;29;20039;-77
2022/01/14 04:44:38;;;;;;;34.28;16.30;;;;;;;-3.06;54.01;96097.00;4935634;23;20031;-76
2022/01/14 04:47:15;;;;;;;29.48;17.25;;;;;;;-3.06;53.96;96095.25;4932296;29;20488;-76
2022/01/14 04:49:41;;;;;;;39.03;16.90;;;;;;;-2.93;53.31;96099.41;4983083;23;20063;-76
2022/01/14 04:52:09;;;;;;;38.30;17.42;;;;;;;-2.81;53.52;96101.00;4933171;29;20040;-76
2022/01/14 04:54:35;;;;;;;43.97;19.45;;;;;;;-2.77;53.45;96090.50;4940344;29;20067;-76
2022/01/14 04:57:03;;;;;;;42.22;18.63;;;;;;;-2.68;52.86;96086.41;4941863;29;20027;-77
2022/01/14 05:01:59;;;;;;;36.55;17.80;;;;;;;-2.63;52.47;96086.03;4958954;23;20047;-78
2022/01/14 05:04:24;;;;;;;47.75;19.75;;;;;;;-2.61;52.66;96082.44;4933962;29;20394;-77
2022/01/14 05:06:57;;;;;;;44.88;19.73;;;;;;;-2.65;53.41;96078.53;4916644;29;20514;-78
2022/01/14 05:09:28;;;;;;;42.78;21.00;;;;;;;-2.63;52.68;96068.22;4909492;23;20125;-78
2022/01/14 05:11:59;;;;;;;45.17;21.27;;;;;;;-2.59;52.83;96072.16;4951066;23;20128;-78
2022/01/14 05:14:24;;;;;;;51.10;22.02;;;;;;;-2.66;52.56;96071.81;4938705;29;20020;-77
2022/01/14 05:16:49;;;;;;;34.25;19.73;;;;;;;-2.67;52.40;96074.50;4943246;29;20023;-77
2022/01/14 05:19:15;;;;;;;42.42;19.45;;;;;;;-2.74;52.73;96084.34;4909075;29;20038;-77
2022/01/14 05:21:41;;;;;;;48.28;18.77;;;;;;;-2.86;53.53;96077.66;4933173;23;20058;-78
2022/01/14 05:24:09;;;;;;;34.40;16.73;;;;;;;-3.00;53.84;96093.16;4931716;29;20039;-78
2022/01/14 05:26:34;;;;;;;37.75;19.48;;;;;;;-3.15;53.94;96090.84;4982248;23;20044;-76
2022/01/14 05:29:00;;;;;;;32.30;17.83;;;;;;;-3.24;54.27;96083.13;4938563;29;20049;-77
2022/01/14 05:32:01;;;;;;;41.95;19.00;;;;;;;-3.36;55.43;96097.56;4940144;29;20833;-77
2022/01/14 05:34:26;;;;;;;39.45;19.83;;;;;;;-3.45;55.40;96091.44;4923263;29;20042;-76
2022/01/14 05:36:52;;;;;;;45.78;20.45;;;;;;;-3.45;55.19;96095.69;4941575;29;20031;-77
2022/01/14 05:39:20;;;;;;;55.83;22.13;;;;;;;-3.46;55.67;96087.28;4942739;29;20090;-77
2022/01/14 05:41:46;;;;;;;47.28;21.73;;;;;;;-3.39;55.64;96092.72;4924774;29;20491;-76
2022/01/14 05:44:11;;;;;;;44.95;22.38;;;;;;;-3.40;54.93;96076.66;4924417;29;20066;-76
2022/01/14 05:46:36;;;;;;;41.85;21.13;;;;;;;-3.34;54.85;96080.47;4939636;29;20427;-77
2022/01/14 05:49:02;;;;;;;43.60;22.10;;;;;;;-3.32;55.17;96078.59;4940933;29;20499;-77
2022/01/14 05:51:27;;;;;;;49.58;23.17;;;;;;;-3.32;54.81;96081.16;4940135;29;20032;-76
2022/01/14 05:56:24;;;;;;;47.95;23.00;;;;;;;-3.42;55.33;96072.59;4931085;23;20060;-77
2022/01/14 05:58:49;;;;;;;32.83;16.58;;;;;;;-3.46;56.19;96072.00;4915620;29;20050;-77
2022/01/14 06:01:15;;;;;;;36.33;18.15;;;;;;;-3.43;55.80;96070.97;4940856;29;20035;-77
2022/01/14 06:03:40;;;;;;;41.72;17.10;;;;;;;-3.35;55.51;96068.69;4921299;29;20118;-77
2022/01/14 06:06:06;;;;;;;44.10;18.52;;;;;;;-3.26;55.72;96073.03;4939841;29;20140;-77
2022/01/14 06:08:37;;;;;;;37.60;19.67;;;;;;;-3.21;55.35;96060.81;4941341;29;20520;-81
2022/01/14 06:11:03;;;;;;;30.20;18.03;;;;;;;-3.14;55.93;96058.59;4944454;29;20097;-78
2022/01/14 06:13:28;;;;;;;42.63;20.50;;;;;;;-3.00;55.87;96062.63;4948059;29;20291;-79
2022/01/14 06:15:53;;;;;;;38.83;20.85;;;;;;;-2.84;54.73;96068.97;4940642;29;20031;-75
2022/01/14 06:18:19;;;;;;;38.58;19.77;;;;;;;-2.74;55.01;96058.91;4940776;29;20043;-75
2022/01/14 06:20:46;;;;;;;57.35;26.52;;;;;;;-2.69;54.78;96056.78;4942670;29;20036;-75
2022/01/14 06:23:12;;;;;;;63.80;26.30;;;;;;;-2.60;54.61;96061.19;4926469;29;20585;-75
2022/01/14 06:25:37;;;;;;;51.92;25.10;;;;;;;-2.52;54.76;96056.28;4910935;29;20063;-74
2022/01/14 06:28:03;;;;;;;55.65;23.05;;;;;;;-2.41;54.47;96055.44;4894662;29;20036;-76
2022/01/14 06:30:28;;;;;;;42.03;19.73;;;;;;;-2.33;54.47;96054.81;4917078;29;20035;-76
2022/01/14 06:32:54;;;;;;;35.55;17.55;;;;;;;-2.28;54.33;96051.00;4944758;29;20063;-78
2022/01/14 06:35:20;;;;;;;40.65;19.20;;;;;;;-2.17;54.29;96050.13;4943986;29;20090;-76
2022/01/14 06:37:48;;;;;;;39.50;18.92;;;;;;;-2.12;54.38;96045.44;4910527;29;20035;-77
2022/01/14 06:40:13;;;;;;;26.45;16.25;;;;;;;-2.11;54.66;96049.63;4895465;29;20107;-76
2022/01/14 06:42:39;;;;;;;32.70;16.67;;;;;;;-2.06;54.60;96049.25;4945461;29;20051;-76
2022/01/14 06:45:05;;;;;;;48.15;21.25;;;;;;;-2.01;54.59;96050.50;4943150;29;20031;-76
2022/01/14 06:47:31;;;;;;;51.47;25.92;;;;;;;-1.88;54.90;96043.47;4941067;29;20028;-76
2022/01/14 06:49:56;;;;;;;30.55;15.95;;;;;;;-1.75;54.68;96037.38;4911496;29;20039;-76
2022/01/14 06:52:22;;;;;;;37.17;17.27;;;;;;;-1.67;54.61;96038.34;4910950;29;20031;-76
2022/01/14 06:54:47;;;;;;;31.40;15.68;;;;;;;-1.56;54.56;96038.28;4924513;29;20436;-76
2022/01/14 06:57:13;;;;;;;31.98;15.60;;;;;;;-1.50;54.83;96026.75;4910595;29;20031;-76
2022/01/14 06:59:38;;;;;;;23.42;14.32;;;;;;;-1.41;54.70;96023.44;4909443;29;20034;-76
2022/01/14 07:02:04;;;;;;;32.55;14.40;;;;;;;-1.32;54.50;96016.75;4943661;29;20035;-76
2022/01/14 07:04:29;;;;;;;29.52;15.65;;;;;;;-1.25;54.21;96013.56;4942814;29;20027;-76
2022/01/14 07:06:55;;;;;;;25.20;14.82;;;;;;;-1.23;53.67;96011.69;4925887;29;20043;-76
2022/01/14 07:09:21;;;;;;;33.10;15.50;;;;;;;-1.22;53.80;96003.09;4940843;29;20040;-76
2022/01/14 07:11:55;;;;;;;30.23;14.93;;;;;;;-1.09;53.70;95999.50;4923711;29;20047;-76
2022/01/14 07:14:27;;;;;;;39.45;15.90;;;;;;;-0.93;53.41;95994.72;4946138;29;20031;-76
2022/01/14 07:16:52;;;;;;;45.90;20.88;;;;;;;-0.79;53.04;95990.97;4944574;29;20102;-76
2022/01/14 07:19:21;;;;;;;52.50;26.33;;;;;;;-0.62;53.51;95987.75;4943971;29;20050;-76
2022/01/14 07:21:46;;;;;;;87.72;33.95;;;;;;;-0.45;52.81;95993.94;4943171;29;20031;-76
2022/01/14 07:24:13;;;;;;;63.55;27.20;;;;;;;-0.32;52.19;95997.03;4939898;29;20035;-76
2022/01/14 07:26:39;;;;;;;51.13;20.05;;;;;;;-0.18;52.55;95995.78;4942475;29;20035;-76
2022/01/14 07:29:05;;;;;;;45.70;18.15;;;;;;;-0.07;52.14;95998.22;4941620;29;20054;-76
2022/01/14 07:31:30;;;;;;;27.25;15.60;;;;;;;-0.01;52.21;96000.19;4942034;28;20035;-76
2022/01/14 07:33:59;;;;;;;32.35;16.67;;;;;;;0.03;52.40;95998.19;4941800;29;20038;-76
2022/01/14 07:36:24;;;;;;;57.78;21.65;;;;;;;0.06;52.59;95988.50;4942071;29;20042;-76
2022/01/14 07:38:50;;;;;;;62.22;26.38;;;;;;;0.16;52.47;95984.19;4942738;29;20031;-76
2022/01/14 07:41:15;;;;;;;64.47;26.50;;;;;;;0.24;52.26;95976.59;4954379;23;20687;-76
2022/01/14 07:43:45;;;;;;;57.70;27.63;;;;;;;0.36;52.20;95979.81;4923995;29;20040;-76
2022/01/14 07:46:11;;;;;;;44.42;22.23;;;;;;;0.46;52.00;95978.00;4923217;29;20491;-77
2022/01/14 07:48:39;;;;;;;43.88;21.05;;;;;;;0.59;51.68;95975.13;4922875;29;20046;-76
2022/01/14 07:51:04;;;;;;;35.53;18.70;;;;;;;0.65;51.22;95974.56;4889045;29;20039;-76
2022/01/14 07:53:30;;;;;;;41.40;19.63;;;;;;;0.66;51.17;95975.38;4919451;29;20084;-76
2022/01/14 07:55:55;;;;;;;33.33;18.38;;;;;;;0.71;51.11;95978.31;4922435;29;20468;-77
2022/01/14 07:58:21;;;;;;;43.75;18.17;;;;;;;0.68;51.46;95968.38;4905651;29;20039;-76
2022/01/14 08:00:47;;;;;;;36.35;16.90;;;;;;;0.67;51.24;95971.88;4922769;29;20040;-76
2022/01/14 08:03:12;;;;;;;31.27;17.30;;;;;;;0.70;52.11;95967.25;4922044;29;20094;-76
2022/01/14 08:05:38;;;;;;;33.22;16.88;;;;;;;0.70;52.48;95954.47;4922825;29;20040;-76
2022/01/14 08:08:04;;;;;;;49.38;20.85;;;;;;;0.76;52.32;95955.63;4906768;29;20151;-77
2022/01/14 08:10:33;;;;;;;34.45;18.65;;;;;;;0.82;52.32;95952.53;4925255;29;20050;-78
2022/01/14 08:12:59;;;;;;;37.55;20.00;;;;;;;0.95;52.75;95952.97;4925037;29;20051;-77
2022/01/14 08:15:24;;;;;;;38.30;20.33;;;;;;;1.01;52.87;95952.41;4921235;29;20043;-78
2022/01/14 08:17:50;;;;;;;43.00;20.30;;;;;;;1.12;52.72;95949.63;4925188;29;20028;-77
2022/01/14 08:20:15;;;;;;;40.78;18.98;;;;;;;1.32;52.82;95957.19;4926480;29;20042;-78
2022/01/14 08:22:40;;;;;;;35.03;19.13;;;;;;;1.47;52.27;95953.16;4908190;29;20035;-78
2022/01/14 08:25:06;;;;;;;40.53;18.05;;;;;;;1.62;52.68;95951.66;4906860;29;20043;-77
2022/01/14 08:27:34;;;;;;;37.85;18.98;;;;;;;1.74;53.07;95940.22;4905218;29;20094;-77
2022/01/14 08:30:02;;;;;;;39.10;18.77;;;;;;;1.82;53.44;95943.81;4922308;29;20040;-78
2022/01/14 08:35:12;;;;;;;31.52;16.60;;;;;;;1.93;52.93;95933.28;4980726;23;20063;-77
2022/01/14 08:37:41;;;;;;;33.65;16.77;;;;;;;1.91;53.10;95924.94;4934066;29;20044;-77
2022/01/14 08:40:07;;;;;;;32.05;16.83;;;;;;;1.95;52.03;95939.06;4916885;29;20127;-78
2022/01/14 08:42:32;;;;;;;32.70;17.02;;;;;;;1.76;52.52;95932.38;4934913;29;20039;-78
2022/01/14 08:44:58;;;;;;;30.23;17.10;;;;;;;1.69;53.44;95933.94;4933677;29;20389;-79
2022/01/14 08:47:23;;;;;;;35.92;18.95;;;;;;;1.76;53.59;95930.59;4932275;29;20040;-77
2022/01/14 08:49:52;;;;;;;31.75;16.55;;;;;;;1.84;53.50;95927.31;4921992;23;20488;-77
2022/01/14 08:52:18;;;;;;;36.58;18.13;;;;;;;1.96;54.10;95935.56;4936640;29;20566;-77
2022/01/14 08:54:43;;;;;;;48.60;23.67;;;;;;;2.18;53.58;95929.13;4932458;29;20062;-76
2022/01/14 08:57:11;;;;;;;34.97;18.60;;;;;;;2.37;54.22;95918.63;4915284;29;20028;-76
2022/01/14 08:59:37;;;;;;;30.40;15.82;;;;;;;2.56;54.34;95915.81;4899217;29;20036;-77
2022/01/14 09:02:02;;;;;;;25.73;13.63;;;;;;;2.69;54.27;95907.66;4899148;29;20054;-77
2022/01/14 09:04:28;;;;;;;20.73;12.60;;;;;;;2.79;54.08;95908.34;4914631;29;20467;-77
2022/01/14 09:06:53;;;;;;;25.20;12.32;;;;;;;2.78;54.46;95908.50;4930311;29;20071;-77
2022/01/14 09:09:18;;;;;;;20.33;11.45;;;;;;;2.78;54.93;95898.22;4932601;29;20028;-77
2022/01/14 09:11:44;;;;;;;23.25;11.70;;;;;;;2.72;55.53;95900.44;4914877;29;20032;-77
2022/01/14 09:14:09;;;;;;;18.52;11.57;;;;;;;2.75;55.84;95899.31;4930470;29;20042;-76
2022/01/14 09:16:35;;;;;;;19.48;10.00;;;;;;;2.76;55.93;95893.22;4931794;29;20053;-77
2022/01/14 09:19:01;;;;;;;26.48;13.75;;;;;;;2.83;55.96;95873.69;4913982;29;20036;-76
2022/01/14 09:21:26;;;;;;;26.00;10.38;;;;;;;2.88;55.61;95866.28;4883128;29;20059;-77
2022/01/14 09:24:03;;;;;;;18.35;10.90;;;;;;;2.94;55.91;95878.53;4941851;24;20048;-76
2022/01/14 09:26:32;;;;;;;12.07;7.65;;;;;;;2.96;55.51;95868.88;4911936;29;20127;-76
2022/01/14 09:28:58;;;;;;;23.52;13.15;;;;;;;2.95;55.40;95872.41;4911377;29;20035;-77
2022/01/14 09:31:23;;;;;;;22.95;10.75;;;;;;;2.88;55.66;95858.59;4895392;29;20044;-76
2022/01/14 09:33:49;;;;;;;19.00;10.48;;;;;;;2.93;55.72;95858.94;4895454;29;20083;-76
2022/01/14 09:36:14;;;;;;;16.52;10.18;;;;;;;2.92;56.19;95857.31;4879647;29;20044;-77
2022/01/14 09:38:42;;;;;;;14.38;9.45;;;;;;;2.87;56.02;95856.97;4895108;29;20048;-76
2022/01/14 09:41:07;;;;;;;24.45;12.88;;;;;;;2.88;56.22;95856.00;4895313;29;20020;-76
2022/01/14 09:43:36;;;;;;;20.90;10.35;;;;;;;2.85;56.33;95864.03;4895368;29;20039;-77
2022/01/14 09:46:03;;;;;;;27.48;15.35;;;;;;;2.90;56.17;95868.69;4880613;29;20039;-76
2022/01/14 09:48:29;;;;;;;26.65;12.50;;;;;;;2.88;55.99;95847.50;4864132;29;20032;-76
2022/01/14 09:50:55;;;;;;;34.22;19.30;;;;;;;2.90;56.35;95848.94;4895300;29;20204;-76
2022/01/14 09:53:23;;;;;;;40.72;19.40;;;;;;;3.01;55.71;95845.28;4879720;29;20039;-77
2022/01/14 09:55:51;;;;;;;79.90;37.00;;;;;;;3.14;55.99;95839.69;4912687;29;20051;-76
2022/01/14 09:58:16;;;;;;;31.83;13.32;;;;;;;3.18;55.58;95831.47;4898194;29;20036;-77
2022/01/14 10:00:44;;;;;;;18.80;11.35;;;;;;;3.25;55.64;95821.34;4898081;29;20051;-78
2022/01/14 10:03:18;;;;;;;36.58;18.95;;;;;;;3.28;55.71;95821.03;4916103;29;20474;-77
2022/01/14 10:05:47;;;;;;;25.52;15.70;;;;;;;3.34;55.16;95817.81;4915865;29;20036;-76
2022/01/14 10:08:17;;;;;;;24.83;14.98;;;;;;;3.29;55.54;95808.03;4915457;29;20503;-76
2022/01/14 10:10:46;;;;;;;28.63;14.30;;;;;;;3.15;55.73;95807.88;4914156;29;20032;-76
2022/01/14 10:13:32;;;;;;;41.50;20.60;;;;;;;3.15;55.95;95800.16;4898532;29;20044;-76
2022/01/14 10:16:04;;;;;;;28.42;15.48;;;;;;;3.08;56.69;95786.34;4897948;29;20601;-76
2022/01/14 10:18:30;;;;;;;28.23;15.07;;;;;;;3.13;56.60;95778.97;4898169;29;20047;-76
2022/01/14 10:21:03;;;;;;;19.13;12.50;;;;;;;3.25;55.61;95775.06;4881774;29;20032;-76
2022/01/14 10:23:38;;;;;;;27.85;16.13;;;;;;;3.36;55.41;95772.19;4882638;29;20491;-76
2022/01/14 10:26:04;;;;;;;54.65;25.67;;;;;;;3.45;56.23;95766.06;4914554;29;20119;-76
2022/01/14 10:28:29;;;;;;;36.42;18.85;;;;;;;3.55;55.31;95765.88;4898041;29;20032;-76
2022/01/14 10:30:55;;;;;;;28.42;15.77;;;;;;;3.66;55.27;95762.16;4898166;29;20504;-76
2022/01/14 10:33:26;;;;;;;46.00;21.40;;;;;;;3.77;54.80;95769.53;4882479;29;20040;-76
2022/01/14 10:35:51;;;;;;;48.17;24.42;;;;;;;3.82;54.93;95747.47;4913270;29;20048;-76
2022/01/14 10:38:21;;;;;;;53.20;22.15;;;;;;;3.85;54.43;95751.47;4881626;29;20050;-76
2022/01/14 10:40:50;;;;;;;39.75;18.77;;;;;;;3.89;54.63;95737.28;4882103;29;20028;-76
2022/01/14 10:43:17;;;;;;;33.58;13.57;;;;;;;3.69;54.26;95736.91;4933097;23;20055;-76
2022/01/14 10:45:44;;;;;;;38.15;19.70;;;;;;;3.66;54.81;95747.53;4933130;29;20522;-78
2022/01/14 10:48:16;;;;;;;43.20;18.58;;;;;;;3.72;54.65;95730.59;4935112;29;20040;-77
2022/01/14 10:50:41;;;;;;;25.33;12.77;;;;;;;3.76;54.85;95735.28;4916827;29;20182;-77
2022/01/14 10:55:50;;;;;;;16.58;10.77;;;;;;;3.96;54.44;95729.72;5001115;23;20063;-77
2022/01/14 10:58:26;;;;;;;29.38;14.32;;;;;;;4.20;53.22;95722.66;5199302;23;20035;-77
2022/01/14 11:01:00;;;;;;;26.45;14.27;;;;;;;4.48;53.50;95724.75;4933504;29;20048;-77
2022/01/14 11:03:43;;;;;;;22.63;12.68;;;;;;;4.81;51.97;95708.06;4934146;29;20043;-77
2022/01/14 11:06:34;;;;;;;15.82;8.95;;;;;;;4.88;51.82;95707.38;4933096;29;20620;-79
2022/01/14 11:09:04;;;;;;;15.93;9.25;;;;;;;4.85;51.37;95708.53;4937446;29;20039;-77
2022/01/14 11:11:32;;;;;;;14.88;9.43;;;;;;;4.94;51.39;95697.19;4942630;29;20396;-81
2022/01/14 11:13:57;;;;;;;11.68;7.00;;;;;;;5.08;50.53;95695.63;5014309;23;20138;-77
2022/01/14 11:16:23;;;;;;;22.25;12.65;;;;;;;5.13;51.56;95688.94;4944728;23;20126;-77
2022/01/14 11:18:49;;;;;;;15.13;10.13;;;;;;;5.14;51.12;95684.59;4939471;29;20480;-78
2022/01/14 11:23:58;;;;;;;11.70;8.30;;;;;;;5.17;50.41;95675.69;4966571;23;20050;-78
2022/01/14 11:26:31;;;;;;;13.55;8.48;;;;;;;5.12;51.28;95673.66;4906972;29;20058;-77
2022/01/14 11:28:56;;;;;;;11.95;7.95;;;;;;;4.87;51.81;95657.59;4903630;29;20035;-78
2022/01/14 11:31:26;;;;;;;17.45;10.00;;;;;;;4.66;52.25;95658.28;4913074;29;20051;-77
2022/01/14 11:33:51;;;;;;;14.80;9.48;;;;;;;4.53;52.91;95650.34;4923686;29;20106;-77
2022/01/14 11:36:16;;;;;;;20.45;11.43;;;;;;;4.45;53.57;95647.84;4924255;29;20506;-77
2022/01/14 11:38:45;;;;;;;20.15;12.65;;;;;;;4.48;53.50;95655.22;4940973;29;20488;-77
2022/01/14 11:41:13;;;;;;;35.20;12.48;;;;;;;4.44;53.64;95628.22;4942374;29;20500;-77
2022/01/14 11:43:48;;;;;;;30.13;12.60;;;;;;;4.44;52.83;95631.59;4940818;29;20062;-76
2022/01/14 11:46:34;;;;;;;24.98;13.38;;;;;;;4.46;52.79;95634.00;4939205;29;20043;-76
2022/01/14 11:49:03;;;;;;;15.38;10.13;;;;;;;4.48;52.56;95639.75;4918051;23;20060;-77
2022/01/14 11:51:28;;;;;;;16.40;10.38;;;;;;;4.43;52.77;95637.72;4942732;29;20035;-76
2022/01/14 11:53:54;;;;;;;15.02;9.32;;;;;;;4.41;52.86;95621.66;4925396;29;20046;-77
2022/01/14 11:56:32;;;;;;;22.35;9.98;;;;;;;4.30;54.03;95629.78;4909264;29;20442;-77
2022/01/14 11:59:22;;;;;;;19.95;12.27;;;;;;;4.31;53.63;95609.97;4949402;23;20043;-77
2022/01/14 12:01:52;;;;;;;26.52;13.73;;;;;;;4.30;53.41;95616.09;4931558;29;20032;-76
2022/01/14 12:04:17;;;;;;;19.70;11.68;;;;;;;4.33;53.97;95605.44;4966870;23;20682;-77
2022/01/14 12:07:03;;;;;;;16.98;10.85;;;;;;;4.34;53.79;95612.19;5015566;23;20043;-77
2022/01/14 12:09:33;;;;;;;19.15;10.75;;;;;;;4.28;53.65;95608.56;4936675;23;20205;-77